createdAt,value
2019-06-01T00:00:15.524Z,80.85
2019-06-01T00:01:15.513Z,81.26
2019-06-01T00:02:15.546Z,81.56
2019-06-01T00:03:15.532Z,81.56
2019-06-01T00:04:15.478Z,81.26
2019-06-01T00:05:15.471Z,80.76
2019-06-01T00:06:15.461Z,80.35
2019-06-01T00:07:15.473Z,80.05
2019-06-01T00:08:15.437Z,79.50
2019-06-01T00:09:15.421Z,79.21
2019-06-01T00:10:15.439Z,78.70
2019-06-01T00:11:15.410Z,78.80
2019-06-01T00:12:15.428Z,78.90
2019-06-01T00:13:15.386Z,79.00
2019-06-01T00:14:15.368Z,79.24
2019-06-01T00:15:15.358Z,79.44
2019-06-01T00:16:15.351Z,79.74
2019-06-01T00:17:15.367Z,79.74
2019-06-01T00:18:15.363Z,79.74
2019-06-01T00:19:15.320Z,79.74
2019-06-01T00:20:16.141Z,79.74
2019-06-01T00:21:15.296Z,79.54
2019-06-01T00:22:15.312Z,79.44
2019-06-01T00:23:15.280Z,79.28
2019-06-01T00:24:15.272Z,79.04
2019-06-01T00:25:15.261Z,78.67
2019-06-01T00:26:16.534Z,78.88
2019-06-01T00:27:15.550Z,78.57
2019-06-01T00:28:15.227Z,78.13
2019-06-01T00:29:15.212Z,77.93
2019-06-01T00:30:26.753Z,77.73
2019-06-01T00:31:16.189Z,77.12
2019-06-01T00:32:15.181Z,77.12
2019-06-01T00:33:15.192Z,77.12
2019-06-01T00:34:15.159Z,76.62
2019-06-01T00:35:15.150Z,76.82
2019-06-01T00:36:15.140Z,76.51
2019-06-01T00:37:15.128Z,76.72
2019-06-01T00:38:15.142Z,76.92
2019-06-01T00:39:15.106Z,76.51
2019-06-01T00:40:15.121Z,76.51
2019-06-01T00:41:15.076Z,76.51
2019-06-01T00:42:15.074Z,76.82
2019-06-01T00:43:15.096Z,76.72
2019-06-01T00:44:15.047Z,77.12
2019-06-01T00:45:15.036Z,76.82
2019-06-01T00:46:15.026Z,76.82
2019-06-01T00:47:15.027Z,76.92
2019-06-01T00:48:15.035Z,76.82
2019-06-01T00:49:15.007Z,77.12
2019-06-01T00:50:14.983Z,77.32
2019-06-01T00:51:14.974Z,77.32
2019-06-01T00:52:14.965Z,77.32
2019-06-01T00:53:14.980Z,77.22
2019-06-01T00:54:14.942Z,77.12
2019-06-01T00:55:14.939Z,77.53
2019-06-01T00:56:14.920Z,77.42
2019-06-01T00:57:14.914Z,77.32
2019-06-01T00:58:14.929Z,77.42
2019-06-01T00:59:14.925Z,77.42
2019-06-01T01:00:14.880Z,77.22
2019-06-01T01:01:14.871Z,77.32
2019-06-01T01:02:14.857Z,77.22
2019-06-01T01:03:15.662Z,76.72
2019-06-01T01:04:15.726Z,76.92
2019-06-01T01:05:14.834Z,76.45
2019-06-01T01:06:14.820Z,76.25
2019-06-01T01:07:14.806Z,76.35
2019-06-01T01:08:14.816Z,76.04
2019-06-01T01:09:14.784Z,76.35
2019-06-01T01:10:14.774Z,76.04
2019-06-01T01:11:14.761Z,76.45
2019-06-01T01:12:14.759Z,76.25
2019-06-01T01:13:16.153Z,76.45
2019-06-01T01:14:14.766Z,76.55
2019-06-01T01:15:14.780Z,76.55
2019-06-01T01:16:14.709Z,76.65
2019-06-01T01:17:14.706Z,77.15
2019-06-01T01:18:14.681Z,77.15
2019-06-01T01:19:14.708Z,77.06
2019-06-01T01:20:14.669Z,77.15
2019-06-01T01:21:14.668Z,77.36
2019-06-01T01:22:14.656Z,77.26
2019-06-01T01:23:14.667Z,77.15
2019-06-01T01:24:14.652Z,77.15
2019-06-01T01:25:14.617Z,76.95
2019-06-01T01:26:14.598Z,76.86
2019-06-01T01:27:14.595Z,76.55
2019-06-01T01:28:14.583Z,76.75
2019-06-01T01:29:14.603Z,76.75
2019-06-01T01:30:14.565Z,76.55
2019-06-01T01:31:14.619Z,76.65
2019-06-01T01:32:14.536Z,76.65
2019-06-01T01:33:14.532Z,76.89
2019-06-01T01:34:14.546Z,76.99
2019-06-01T01:35:14.512Z,77.19
2019-06-01T01:36:14.500Z,77.80
2019-06-01T01:37:14.483Z,77.90
2019-06-01T01:38:15.302Z,77.80
2019-06-01T01:39:15.341Z,77.90
2019-06-01T01:40:14.452Z,77.90
2019-06-01T01:41:14.441Z,78.00
2019-06-01T01:42:14.431Z,77.90
2019-06-01T01:43:15.206Z,78.10
2019-06-01T01:44:14.439Z,78.10
2019-06-01T01:45:14.399Z,78.10
2019-06-01T01:46:14.404Z,77.90
2019-06-01T01:47:14.512Z,78.04
2019-06-01T01:48:14.368Z,78.04
2019-06-01T01:49:14.388Z,77.94
2019-06-01T01:50:14.354Z,77.43
2019-06-01T01:51:14.342Z,77.73
2019-06-01T01:52:14.326Z,77.87
2019-06-01T01:53:14.316Z,78.48
2019-06-01T01:54:14.334Z,78.78
2019-06-01T01:55:14.294Z,79.53
2019-06-01T01:56:14.365Z,79.83
2019-06-01T01:57:14.273Z,80.04
2019-06-01T01:58:14.774Z,80.44
2019-06-01T01:59:14.281Z,81.09
2019-06-01T02:00:14.242Z,81.09
2019-06-01T02:01:22.153Z,81.29
2019-06-01T02:02:15.229Z,81.18
2019-06-01T02:03:14.213Z,81.29
2019-06-01T02:04:14.230Z,81.29
2019-06-01T02:05:14.191Z,81.29
2019-06-01T02:06:14.180Z,81.39
2019-06-01T02:07:14.170Z,81.49
2019-06-01T02:08:14.159Z,81.39
2019-06-01T02:09:14.179Z,81.29
2019-06-01T02:10:14.143Z,81.29
2019-06-01T02:11:14.127Z,81.29
2019-06-01T02:12:14.124Z,81.09
2019-06-01T02:13:14.106Z,81.09
2019-06-01T02:14:14.125Z,81.29
2019-06-01T02:15:14.088Z,81.29
2019-06-01T02:16:14.077Z,81.18
2019-06-01T02:17:14.065Z,80.98
2019-06-01T02:18:14.059Z,81.18
2019-06-01T02:19:14.073Z,81.49
2019-06-01T02:20:14.033Z,81.69
2019-06-01T02:21:14.024Z,81.59
2019-06-01T02:22:14.033Z,81.29
2019-06-01T02:23:14.873Z,81.29
2019-06-01T02:24:14.013Z,81.18
2019-06-01T02:25:13.980Z,81.09
2019-06-01T02:26:13.977Z,81.15
2019-06-01T02:27:13.958Z,81.25
2019-06-01T02:28:13.943Z,81.49
2019-06-01T02:29:13.966Z,81.59
2019-06-01T02:30:13.928Z,81.49
2019-06-01T02:31:13.918Z,81.59
2019-06-01T02:32:13.989Z,81.79
2019-06-01T02:33:13.912Z,81.99
2019-06-01T02:34:14.555Z,81.93
2019-06-01T02:35:13.873Z,82.03
2019-06-01T02:36:13.857Z,82.44
2019-06-01T02:37:13.854Z,82.64
2019-06-01T02:38:13.846Z,82.54
2019-06-01T02:39:13.826Z,82.84
2019-06-01T02:40:13.866Z,82.75
2019-06-01T02:41:13.808Z,82.75
2019-06-01T02:42:13.795Z,82.44
2019-06-01T02:43:13.786Z,82.44
2019-06-01T02:44:14.354Z,82.10
2019-06-01T02:45:13.809Z,82.20
2019-06-01T02:46:13.783Z,82.20
2019-06-01T02:47:13.742Z,82.10
2019-06-01T02:48:13.732Z,82.10
2019-06-01T02:49:13.728Z,82.20
2019-06-01T02:50:13.746Z,82.20
2019-06-01T02:51:13.699Z,82.40
2019-06-01T02:52:13.690Z,82.50
2019-06-01T02:53:13.679Z,82.60
2019-06-01T02:54:13.683Z,82.90
2019-06-01T02:55:13.687Z,83.01
2019-06-01T02:56:13.646Z,82.90
2019-06-01T02:57:13.637Z,82.81
2019-06-01T02:58:13.624Z,82.81
2019-06-01T02:59:13.616Z,82.67
2019-06-01T03:00:14.596Z,82.67
2019-06-01T03:01:13.600Z,82.81
2019-06-01T03:02:15.045Z,82.76
2019-06-01T03:03:14.355Z,82.87
2019-06-01T03:04:13.569Z,82.97
2019-06-01T03:05:13.575Z,83.27
2019-06-01T03:06:13.543Z,83.17
2019-06-01T03:07:13.536Z,83.17
2019-06-01T03:08:13.513Z,82.97
2019-06-01T03:09:13.521Z,82.97
2019-06-01T03:10:13.526Z,82.87
2019-06-01T03:11:13.489Z,82.87
2019-06-01T03:12:14.132Z,82.87
2019-06-01T03:13:13.461Z,82.67
2019-06-01T03:14:13.474Z,82.76
2019-06-01T03:15:13.470Z,82.67
2019-06-01T03:16:13.429Z,82.42
2019-06-01T03:17:13.430Z,82.32
2019-06-01T03:18:13.419Z,82.36
2019-06-01T03:19:13.452Z,82.42
2019-06-01T03:20:14.138Z,82.22
2019-06-01T03:21:13.378Z,82.32
2019-06-01T03:22:13.378Z,82.42
2019-06-01T03:23:13.356Z,82.53
2019-06-01T03:24:13.554Z,82.42
2019-06-01T03:25:13.366Z,82.53
2019-06-01T03:26:13.325Z,82.62
2019-06-01T03:27:13.316Z,82.62
2019-06-01T03:28:13.314Z,82.53
2019-06-01T03:29:13.294Z,82.62
2019-06-01T03:30:15.683Z,82.53
2019-06-01T03:31:13.411Z,82.32
2019-06-01T03:32:33.174Z,82.42
2019-06-01T03:33:15.025Z,82.42
2019-06-01T03:34:14.014Z,82.32
2019-06-01T03:35:13.301Z,82.32
2019-06-01T03:36:13.275Z,82.18
2019-06-01T03:37:14.127Z,82.12
2019-06-01T03:38:13.198Z,82.32
2019-06-01T03:39:13.255Z,82.42
2019-06-01T03:40:23.166Z,82.42
2019-06-01T03:41:14.908Z,82.73
2019-06-01T03:42:14.127Z,82.93
2019-06-01T03:43:13.909Z,82.73
2019-06-01T03:44:13.167Z,82.53
2019-06-01T03:45:13.329Z,82.53
2019-06-01T03:46:13.183Z,82.53
2019-06-01T03:47:13.107Z,82.62
2019-06-01T03:48:13.093Z,82.42
2019-06-01T03:49:13.089Z,82.53
2019-06-01T03:50:13.313Z,82.62
2019-06-01T03:51:14.153Z,82.69
2019-06-01T03:52:13.142Z,82.59
2019-06-01T03:53:13.043Z,82.49
2019-06-01T03:54:13.290Z,82.39
2019-06-01T03:55:13.012Z,82.39
2019-06-01T03:56:13.032Z,82.28
2019-06-01T03:57:13.002Z,82.39
2019-06-01T03:58:12.987Z,82.28
2019-06-01T03:59:12.979Z,82.08
2019-06-01T04:00:12.970Z,81.74
2019-06-01T04:01:12.980Z,81.94
2019-06-01T04:02:13.578Z,81.84
2019-06-01T04:03:12.929Z,81.74
2019-06-01T04:04:12.925Z,81.64
2019-06-01T04:05:12.923Z,81.44
2019-06-01T04:06:12.927Z,81.54
2019-06-01T04:07:12.894Z,81.74
2019-06-01T04:08:12.876Z,81.74
2019-06-01T04:09:12.867Z,81.74
2019-06-01T04:10:13.697Z,81.90
2019-06-01T04:11:12.883Z,81.50
2019-06-01T04:12:12.835Z,81.40
2019-06-01T04:13:12.827Z,81.20
2019-06-01T04:14:12.815Z,81.30
2019-06-01T04:15:16.241Z,81.26
2019-06-01T04:16:12.823Z,81.05
2019-06-01T04:17:12.794Z,81.05
2019-06-01T04:18:13.971Z,81.05
2019-06-01T04:19:12.761Z,80.65
2019-06-01T04:20:13.711Z,80.85
2019-06-01T04:21:12.793Z,81.12
2019-06-01T04:22:13.688Z,81.02
2019-06-01T04:23:12.723Z,80.82
2019-06-01T04:24:12.718Z,80.92
2019-06-01T04:25:13.069Z,80.21
2019-06-01T04:26:12.923Z,81.12
2019-06-01T04:27:13.791Z,80.58
2019-06-01T04:28:13.035Z,80.38
2019-06-01T04:29:12.846Z,79.97
2019-06-01T04:30:13.733Z,79.97
2019-06-01T04:31:12.940Z,79.77
2019-06-01T04:32:12.915Z,79.63
2019-06-01T04:33:13.262Z,79.63
2019-06-01T04:34:13.115Z,79.23
2019-06-01T04:35:13.801Z,79.23
2019-06-01T04:36:13.516Z,79.19
2019-06-01T04:37:13.370Z,78.89
2019-06-01T04:38:13.496Z,78.69
2019-06-01T04:39:13.759Z,78.39
2019-06-01T04:40:13.655Z,78.59
2019-06-01T04:41:13.987Z,78.35
2019-06-01T04:42:13.832Z,78.15
2019-06-01T04:43:14.032Z,77.95
2019-06-01T04:44:18.091Z,78.15
2019-06-01T04:45:12.642Z,78.25
2019-06-01T04:46:12.742Z,77.91
2019-06-01T04:47:14.561Z,77.91
2019-06-01T04:48:12.763Z,77.40
2019-06-01T04:49:13.381Z,77.37
2019-06-01T04:50:13.190Z,77.17
2019-06-01T04:51:13.487Z,77.07
2019-06-01T04:52:13.545Z,76.56
2019-06-01T04:53:13.415Z,76.32
2019-06-01T04:54:14.432Z,76.23
2019-06-01T04:55:13.032Z,76.03
2019-06-01T04:56:13.125Z,75.92
2019-06-01T04:57:13.019Z,75.92
2019-06-01T04:58:15.051Z,75.59
2019-06-01T04:59:13.454Z,75.59
2019-06-01T05:00:27.105Z,75.18
2019-06-01T05:01:13.313Z,75.09
2019-06-01T05:02:13.171Z,74.95
2019-06-01T05:03:13.563Z,74.74
2019-06-01T05:04:13.279Z,74.74
2019-06-01T05:05:13.349Z,74.65
2019-06-01T05:06:13.407Z,74.74
2019-06-01T05:07:13.458Z,74.44
2019-06-01T05:08:13.867Z,74.71
2019-06-01T05:09:13.288Z,74.91
2019-06-01T05:10:14.253Z,75.21
2019-06-01T05:11:13.429Z,75.21
2019-06-01T05:12:13.507Z,75.62
2019-06-01T05:13:12.188Z,75.11
2019-06-01T05:14:13.768Z,74.81
2019-06-01T05:15:12.272Z,74.48
2019-06-01T05:16:14.396Z,74.27
2019-06-01T05:17:13.502Z,74.07
2019-06-01T05:18:14.022Z,74.07
2019-06-01T05:19:12.301Z,73.67
2019-06-01T05:20:12.556Z,73.54
2019-06-01T05:21:12.907Z,73.84
2019-06-01T05:22:12.604Z,73.44
2019-06-01T05:23:12.688Z,73.44
2019-06-01T05:24:12.705Z,73.64
2019-06-01T05:25:13.496Z,73.13
2019-06-01T05:26:13.098Z,73.10
2019-06-01T05:27:13.624Z,73.40
2019-06-01T05:28:13.296Z,73.60
2019-06-01T05:29:13.437Z,72.66
2019-06-01T05:30:12.008Z,72.97
2019-06-01T05:31:16.807Z,72.47
2019-06-01T05:32:13.259Z,72.47
2019-06-01T05:33:26.575Z,72.06
2019-06-01T05:34:13.815Z,71.77
2019-06-01T05:35:12.307Z,71.77
2019-06-01T05:36:12.478Z,71.46
2019-06-01T05:37:12.469Z,71.56
2019-06-01T05:38:12.681Z,71.16
2019-06-01T05:39:12.503Z,71.36
2019-06-01T05:40:12.512Z,71.16
2019-06-01T05:41:13.302Z,71.26
2019-06-01T05:42:12.636Z,71.26
2019-06-01T05:43:14.886Z,71.36
2019-06-01T05:44:13.191Z,71.36
2019-06-01T05:45:13.027Z,71.46
2019-06-01T05:46:12.359Z,71.16
2019-06-01T05:47:12.229Z,71.16
2019-06-01T05:48:20.735Z,70.96
2019-06-01T05:49:14.407Z,71.16
2019-06-01T05:50:12.267Z,70.86
2019-06-01T05:51:13.730Z,70.96
2019-06-01T05:52:12.450Z,70.86
2019-06-01T05:53:12.494Z,70.86
2019-06-01T05:54:12.507Z,71.26
2019-06-01T05:55:12.841Z,70.93
2019-06-01T05:56:12.715Z,70.73
2019-06-01T05:57:12.675Z,70.62
2019-06-01T05:58:12.864Z,70.50
2019-06-01T05:59:11.933Z,70.29
2019-06-01T06:00:13.343Z,70.39
2019-06-01T06:01:12.391Z,69.79
2019-06-01T06:02:11.690Z,69.49
2019-06-01T06:03:15.374Z,69.79
2019-06-01T06:04:13.398Z,69.49
2019-06-01T06:05:12.594Z,69.89
2019-06-01T06:06:11.731Z,69.66
2019-06-01T06:07:12.828Z,69.86
2019-06-01T06:08:12.737Z,69.46
2019-06-01T06:09:13.216Z,69.26
2019-06-01T06:10:12.466Z,69.56
2019-06-01T06:11:12.843Z,69.26
2019-06-01T06:12:13.201Z,68.96
2019-06-01T06:13:11.686Z,68.55
2019-06-01T06:14:11.577Z,68.52
2019-06-01T06:15:11.545Z,68.73
2019-06-01T06:16:11.699Z,68.73
2019-06-01T06:17:14.041Z,68.82
2019-06-01T06:18:11.732Z,68.43
2019-06-01T06:19:12.576Z,68.23
2019-06-01T06:20:11.804Z,68.13
2019-06-01T06:21:12.352Z,67.72
2019-06-01T06:22:12.491Z,67.72
2019-06-01T06:23:12.235Z,67.89
2019-06-01T06:24:12.191Z,67.99
2019-06-01T06:25:14.212Z,67.79
2019-06-01T06:26:11.985Z,67.06
2019-06-01T06:27:12.435Z,66.56
2019-06-01T06:28:12.481Z,66.16
2019-06-01T06:29:12.662Z,65.76
2019-06-01T06:30:11.366Z,66.29
2019-06-01T06:31:11.359Z,65.79
2019-06-01T06:32:11.346Z,66.16
2019-06-01T06:33:13.176Z,65.86
2019-06-01T06:34:11.391Z,67.13
2019-06-01T06:35:11.317Z,66.09
2019-06-01T06:36:11.381Z,65.77
2019-06-01T06:37:11.298Z,63.90
2019-06-01T06:38:11.286Z,63.60
2019-06-01T06:39:11.304Z,64.97
2019-06-01T06:40:11.256Z,64.74
2019-06-01T06:41:11.266Z,63.64
2019-06-01T06:42:11.243Z,63.71
2019-06-01T06:43:20.033Z,63.88
2019-06-01T06:44:12.245Z,61.85
2019-06-01T06:45:11.204Z,62.15
2019-06-01T06:46:12.022Z,63.64
2019-06-01T06:47:11.192Z,62.51
2019-06-01T06:48:11.173Z,62.78
2019-06-01T06:49:11.194Z,62.26
2019-06-01T06:50:14.479Z,62.23
2019-06-01T06:51:11.143Z,61.83
2019-06-01T06:52:11.140Z,61.30
2019-06-01T06:53:24.526Z,60.30
2019-06-01T06:54:14.545Z,60.47
2019-06-01T06:55:11.104Z,59.98
2019-06-01T06:56:11.102Z,58.58
2019-06-01T06:57:11.090Z,58.48
2019-06-01T06:58:11.093Z,58.48
2019-06-01T06:59:11.793Z,58.09
2019-06-01T07:00:11.049Z,58.09
2019-06-01T07:01:12.193Z,57.71
2019-06-01T07:02:11.030Z,58.31
2019-06-01T07:03:11.021Z,58.22
2019-06-01T07:04:12.916Z,57.59
2019-06-01T07:05:11.214Z,57.66
2019-06-01T07:06:10.988Z,58.26
2019-06-01T07:07:10.976Z,57.83
2019-06-01T07:08:10.967Z,58.53
2019-06-01T07:09:10.981Z,57.83
2019-06-01T07:10:10.966Z,57.53
2019-06-01T07:11:11.992Z,56.74
2019-06-01T07:12:11.884Z,56.74
2019-06-01T07:13:10.923Z,56.61
2019-06-01T07:14:10.912Z,56.02
2019-06-01T07:15:10.949Z,56.41
2019-06-01T07:16:10.882Z,55.79
2019-06-01T07:17:10.872Z,55.49
2019-06-01T07:18:10.866Z,54.80
2019-06-01T07:19:10.861Z,54.38
2019-06-01T07:20:10.885Z,55.27
2019-06-01T07:21:10.838Z,55.57
2019-06-01T07:22:10.831Z,54.45
2019-06-01T07:23:11.681Z,54.45
2019-06-01T07:24:10.800Z,52.69
2019-06-01T07:25:10.829Z,54.87
2019-06-01T07:26:11.650Z,53.08
2019-06-01T07:27:10.780Z,54.08
2019-06-01T07:28:10.780Z,53.68
2019-06-01T07:29:10.763Z,53.61
2019-06-01T07:30:10.782Z,54.08
2019-06-01T07:31:11.527Z,52.69
2019-06-01T07:32:10.725Z,52.69
2019-06-01T07:33:10.706Z,53.36
2019-06-01T07:34:10.768Z,53.96
2019-06-01T07:35:10.742Z,53.85
2019-06-01T07:36:10.683Z,53.56
2019-06-01T07:37:10.685Z,53.13
2019-06-01T07:38:10.647Z,52.94
2019-06-01T07:39:10.843Z,52.61
2019-06-01T07:40:13.628Z,52.81
2019-06-01T07:41:10.625Z,52.31
2019-06-01T07:42:10.712Z,53.13
2019-06-01T07:43:10.603Z,53.53
2019-06-01T07:44:10.585Z,52.81
2019-06-01T07:45:10.622Z,53.41
2019-06-01T07:46:10.567Z,53.48
2019-06-01T07:47:10.552Z,52.19
2019-06-01T07:48:10.582Z,51.72
2019-06-01T07:49:10.531Z,51.12
2019-06-01T07:50:10.569Z,51.23
2019-06-01T07:51:10.587Z,50.63
2019-06-01T07:52:13.252Z,50.60
2019-06-01T07:53:10.514Z,51.37
2019-06-01T07:54:10.490Z,52.26
2019-06-01T07:55:10.832Z,52.44
2019-06-01T07:56:10.843Z,51.05
2019-06-01T07:57:10.747Z,51.03
2019-06-01T07:58:10.679Z,49.82
2019-06-01T07:59:10.748Z,49.42
2019-06-01T08:00:10.788Z,48.51
2019-06-01T08:01:10.858Z,47.81
2019-06-01T08:02:10.866Z,47.62
2019-06-01T08:03:10.682Z,48.21
2019-06-01T08:04:10.703Z,48.03
2019-06-01T08:05:11.359Z,47.27
2019-06-01T08:06:11.820Z,47.07
2019-06-01T08:07:12.107Z,47.59
2019-06-01T08:08:10.703Z,47.52
2019-06-01T08:09:10.323Z,47.41
2019-06-01T08:10:10.407Z,47.78
2019-06-01T08:11:10.823Z,47.31
2019-06-01T08:12:10.301Z,47.74
2019-06-01T08:13:10.284Z,47.41
2019-06-01T08:14:10.272Z,48.21
2019-06-01T08:15:10.281Z,48.46
2019-06-01T08:16:10.290Z,46.08
2019-06-01T08:17:10.231Z,45.57
2019-06-01T08:18:10.231Z,46.36
2019-06-01T08:19:10.222Z,45.31
2019-06-01T08:20:10.220Z,46.95
2019-06-01T08:21:10.229Z,46.26
2019-06-01T08:22:10.224Z,45.45
2019-06-01T08:23:10.170Z,44.64
2019-06-01T08:24:10.224Z,43.55
2019-06-01T08:25:10.171Z,44.02
2019-06-01T08:26:10.187Z,44.61
2019-06-01T08:27:10.679Z,44.24
2019-06-01T08:28:10.124Z,45.03
2019-06-01T08:29:10.109Z,44.93
2019-06-01T08:30:10.112Z,43.55
2019-06-01T08:31:10.116Z,43.77
2019-06-01T08:32:10.139Z,43.96
2019-06-01T08:33:10.135Z,44.31
2019-06-01T08:34:10.118Z,45.25
2019-06-01T08:35:10.052Z,45.23
2019-06-01T08:36:10.490Z,43.62
2019-06-01T08:37:10.675Z,43.73
2019-06-01T08:38:10.939Z,42.83
2019-06-01T08:39:10.014Z,43.05
2019-06-01T08:40:10.012Z,43.05
2019-06-01T08:41:10.044Z,43.07
2019-06-01T08:42:09.987Z,43.37
2019-06-01T08:43:09.972Z,44.60
2019-06-01T08:44:09.954Z,43.24
2019-06-01T08:45:09.944Z,44.32
2019-06-01T08:46:09.932Z,43.75
2019-06-01T08:47:09.951Z,44.45
2019-06-01T08:48:10.889Z,44.42
2019-06-01T08:49:09.900Z,42.92
2019-06-01T08:50:09.894Z,43.39
2019-06-01T08:51:09.982Z,42.88
2019-06-01T08:52:09.922Z,41.49
2019-06-01T08:53:09.862Z,42.88
2019-06-01T08:54:09.850Z,42.66
2019-06-01T08:55:10.470Z,42.76
2019-06-01T08:56:09.829Z,43.23
2019-06-01T08:57:09.848Z,42.72
2019-06-01T08:58:09.808Z,41.53
2019-06-01T08:59:09.800Z,40.76
2019-06-01T09:00:10.309Z,40.66
2019-06-01T09:01:10.460Z,40.37
2019-06-01T09:02:09.796Z,41.17
2019-06-01T09:03:09.767Z,41.38
2019-06-01T09:04:09.755Z,41.77
2019-06-01T09:05:23.525Z,41.49
2019-06-01T09:06:10.724Z,41.69
2019-06-01T09:07:09.804Z,41.61
2019-06-01T09:08:09.740Z,40.80
2019-06-01T09:09:11.861Z,40.88
2019-06-01T09:10:10.343Z,40.88
2019-06-01T09:11:09.673Z,39.95
2019-06-01T09:12:09.692Z,39.78
2019-06-01T09:13:09.663Z,39.48
2019-06-01T09:14:09.712Z,40.27
2019-06-01T09:15:09.644Z,41.53
2019-06-01T09:16:09.653Z,40.33
2019-06-01T09:17:09.640Z,41.39
2019-06-01T09:18:10.234Z,40.70
2019-06-01T09:19:11.348Z,40.01
2019-06-01T09:20:09.584Z,39.60
2019-06-01T09:21:09.570Z,40.00
2019-06-01T09:22:09.590Z,39.89
2019-06-01T09:23:09.610Z,39.70
2019-06-01T09:24:09.547Z,39.89
2019-06-01T09:25:10.450Z,39.87
2019-06-01T09:26:09.518Z,38.87
2019-06-01T09:27:09.538Z,38.38
2019-06-01T09:28:09.497Z,38.18
2019-06-01T09:29:09.487Z,38.78
2019-06-01T09:30:09.483Z,38.89
2019-06-01T09:31:10.464Z,38.93
2019-06-01T09:32:11.018Z,39.23
2019-06-01T09:33:09.441Z,39.72
2019-06-01T09:34:09.434Z,39.11
2019-06-01T09:35:09.427Z,38.60
2019-06-01T09:36:09.440Z,38.01
2019-06-01T09:37:09.435Z,36.80
2019-06-01T09:38:09.416Z,36.30
2019-06-01T09:39:09.405Z,38.36
2019-06-01T09:40:09.375Z,36.77
2019-06-01T09:41:09.389Z,37.07
2019-06-01T09:42:09.351Z,37.48
2019-06-01T09:43:09.365Z,37.08
2019-06-01T09:44:09.333Z,37.10
2019-06-01T09:45:09.321Z,37.38
2019-06-01T09:46:09.311Z,38.36
2019-06-01T09:47:09.301Z,37.89
2019-06-01T09:48:09.603Z,36.82
2019-06-01T09:49:09.281Z,37.61
2019-06-01T09:50:09.269Z,38.10
2019-06-01T09:51:09.260Z,38.01
2019-06-01T09:52:12.303Z,38.49
2019-06-01T09:53:09.270Z,38.68
2019-06-01T09:54:09.225Z,38.40
2019-06-01T09:55:09.236Z,38.70
2019-06-01T09:56:09.209Z,37.61
2019-06-01T09:57:09.200Z,38.58
2019-06-01T09:58:09.208Z,37.87
2019-06-01T09:59:09.293Z,37.67
2019-06-01T10:00:09.161Z,37.40
2019-06-01T10:01:09.171Z,38.36
2019-06-01T10:02:09.147Z,38.44
2019-06-01T10:03:09.157Z,38.13
2019-06-01T10:04:09.130Z,37.85
2019-06-01T10:05:09.108Z,37.52
2019-06-01T10:06:09.103Z,37.01
2019-06-01T10:07:09.112Z,36.32
2019-06-01T10:08:09.107Z,37.11
2019-06-01T10:09:09.076Z,36.32
2019-06-01T10:10:09.067Z,36.70
2019-06-01T10:11:09.049Z,36.21
2019-06-01T10:12:09.050Z,35.82
2019-06-01T10:13:09.055Z,34.92
2019-06-01T10:14:09.014Z,35.21
2019-06-01T10:15:09.008Z,34.34
2019-06-01T10:16:08.999Z,35.18
2019-06-01T10:17:09.013Z,37.07
2019-06-01T10:18:10.044Z,36.95
2019-06-01T10:19:08.963Z,34.99
2019-06-01T10:20:08.973Z,35.87
2019-06-01T10:21:08.943Z,36.34
2019-06-01T10:22:09.833Z,35.74
2019-06-01T10:23:08.976Z,34.64
2019-06-01T10:24:08.917Z,34.16
2019-06-01T10:25:09.451Z,35.23
2019-06-01T10:26:08.923Z,34.42
2019-06-01T10:27:08.883Z,34.90
2019-06-01T10:28:08.902Z,35.02
2019-06-01T10:29:08.860Z,33.74
2019-06-01T10:30:08.851Z,33.74
2019-06-01T10:31:08.840Z,33.23
2019-06-01T10:32:08.847Z,32.74
2019-06-01T10:33:08.848Z,32.15
2019-06-01T10:34:08.809Z,33.43
2019-06-01T10:35:08.799Z,32.25
2019-06-01T10:36:20.085Z,32.14
2019-06-01T10:37:09.816Z,31.96
2019-06-01T10:38:10.398Z,31.97
2019-06-01T10:39:08.766Z,32.57
2019-06-01T10:40:08.778Z,33.74
2019-06-01T10:41:08.736Z,33.04
2019-06-01T10:42:08.726Z,32.87
2019-06-01T10:43:08.744Z,33.64
2019-06-01T10:44:08.735Z,32.84
2019-06-01T10:45:08.702Z,32.04
2019-06-01T10:46:08.692Z,32.51
2019-06-01T10:47:08.679Z,32.53
2019-06-01T10:48:08.693Z,32.56
2019-06-01T10:49:08.656Z,32.66
2019-06-01T10:50:08.643Z,32.28
2019-06-01T10:51:08.637Z,33.67
2019-06-01T10:52:08.623Z,33.59
2019-06-01T10:53:08.641Z,33.56
2019-06-01T10:54:08.604Z,33.23
2019-06-01T10:55:09.392Z,33.29
2019-06-01T10:56:08.590Z,32.34
2019-06-01T10:57:08.578Z,32.22
2019-06-01T10:58:08.592Z,31.93
2019-06-01T10:59:08.601Z,32.03
2019-06-01T11:00:08.546Z,32.90
2019-06-01T11:01:08.531Z,32.12
2019-06-01T11:02:08.520Z,32.01
2019-06-01T11:03:08.539Z,31.74
2019-06-01T11:04:08.500Z,31.29
2019-06-01T11:05:08.499Z,33.23
2019-06-01T11:06:08.518Z,32.82
2019-06-01T11:07:08.470Z,33.29
2019-06-01T11:08:08.498Z,31.93
2019-06-01T11:09:08.455Z,31.71
2019-06-01T11:10:09.226Z,31.90
2019-06-01T11:11:08.435Z,32.48
2019-06-01T11:12:08.417Z,31.41
2019-06-01T11:13:08.407Z,31.90
2019-06-01T11:14:08.442Z,31.11
2019-06-01T11:15:08.400Z,32.40
2019-06-01T11:16:08.381Z,31.78
2019-06-01T11:17:08.368Z,31.31
2019-06-01T11:18:08.383Z,31.41
2019-06-01T11:19:08.383Z,31.10
2019-06-01T11:20:08.342Z,30.52
2019-06-01T11:21:09.106Z,32.58
2019-06-01T11:22:10.009Z,31.11
2019-06-01T11:23:08.312Z,31.31
2019-06-01T11:24:08.324Z,31.65
2019-06-01T11:25:08.293Z,32.54
2019-06-01T11:26:08.282Z,32.50
2019-06-01T11:27:09.627Z,33.26
2019-06-01T11:28:08.259Z,32.74
2019-06-01T11:29:09.220Z,32.81
2019-06-01T11:30:08.239Z,31.06
2019-06-01T11:31:08.228Z,32.64
2019-06-01T11:32:08.221Z,31.47
2019-06-01T11:33:08.210Z,33.02
2019-06-01T11:34:08.237Z,33.48
2019-06-01T11:35:08.189Z,32.87
2019-06-01T11:36:08.177Z,32.70
2019-06-01T11:37:08.194Z,31.34
2019-06-01T11:38:08.158Z,32.14
2019-06-01T11:39:08.231Z,31.63
2019-06-01T11:40:08.145Z,32.09
2019-06-01T11:41:08.127Z,32.97
2019-06-01T11:42:08.117Z,32.37
2019-06-01T11:43:08.104Z,32.23
2019-06-01T11:44:08.427Z,31.71
2019-06-01T11:45:08.084Z,31.21
2019-06-01T11:46:08.076Z,31.11
2019-06-01T11:47:08.064Z,29.84
2019-06-01T11:48:08.607Z,30.39
2019-06-01T11:49:08.713Z,31.58
2019-06-01T11:50:08.036Z,33.38
2019-06-01T11:51:08.025Z,33.15
2019-06-01T11:52:08.032Z,32.73
2019-06-01T11:53:08.002Z,31.57
2019-06-01T11:54:08.015Z,32.28
2019-06-01T11:55:08.705Z,32.57
2019-06-01T11:56:07.974Z,32.90
2019-06-01T11:57:07.960Z,33.49
2019-06-01T11:58:08.106Z,33.08
2019-06-01T11:59:07.963Z,32.40
2019-06-01T12:00:07.932Z,32.95
2019-06-01T12:01:08.605Z,31.37
2019-06-01T12:02:07.912Z,30.90
2019-06-01T12:03:07.904Z,31.12
2019-06-01T12:04:07.923Z,31.12
2019-06-01T12:05:08.701Z,31.79
2019-06-01T12:06:07.879Z,31.17
2019-06-01T12:07:17.509Z,31.20
2019-06-01T12:08:08.850Z,31.67
2019-06-01T12:09:07.881Z,31.67
2019-06-01T12:10:07.828Z,32.22
2019-06-01T12:11:08.383Z,31.90
2019-06-01T12:12:07.809Z,31.78
2019-06-01T12:13:07.798Z,29.93
2019-06-01T12:14:07.819Z,30.15
2019-06-01T12:15:07.851Z,30.25
2019-06-01T12:16:08.750Z,29.25
2019-06-01T12:17:07.758Z,30.71
2019-06-01T12:18:08.718Z,28.75
2019-06-01T12:19:07.752Z,29.55
2019-06-01T12:20:07.759Z,28.65
2019-06-01T12:21:07.726Z,29.38
2019-06-01T12:22:07.717Z,29.90
2019-06-01T12:23:07.695Z,31.73
2019-06-01T12:24:07.697Z,32.21
2019-06-01T12:25:07.713Z,32.89
2019-06-01T12:26:07.665Z,31.87
2019-06-01T12:27:07.655Z,31.71
2019-06-01T12:28:07.644Z,31.63
2019-06-01T12:29:07.633Z,31.32
2019-06-01T12:30:07.645Z,32.17
2019-06-01T12:31:07.611Z,32.06
2019-06-01T12:32:07.605Z,30.36
2019-06-01T12:33:07.599Z,31.44
2019-06-01T12:34:07.582Z,30.46
2019-06-01T12:35:07.612Z,29.10
2019-06-01T12:36:07.771Z,30.18
2019-06-01T12:37:07.876Z,31.24
2019-06-01T12:38:07.553Z,29.08
2019-06-01T12:39:07.531Z,30.58
2019-06-01T12:40:07.938Z,30.37
2019-06-01T12:41:07.510Z,30.81
2019-06-01T12:42:07.498Z,31.51
2019-06-01T12:43:07.488Z,31.84
2019-06-01T12:44:07.480Z,31.84
2019-06-01T12:45:07.535Z,32.81
2019-06-01T12:46:07.983Z,34.15
2019-06-01T12:47:07.449Z,32.45
2019-06-01T12:48:07.455Z,32.06
2019-06-01T12:49:07.429Z,31.65
2019-06-01T12:50:07.463Z,33.43
2019-06-01T12:51:07.405Z,32.94
2019-06-01T12:52:08.321Z,32.07